Time;durP1;ratioP1;P1;durP2;ratioP2;P2;SDS_P1;SDS_P2;PMS_P1;PMS_P2;Temp;Humidity;BMP_temperature;BMP_pressure;BME280_temperature;BME280_humidity;BME280_pressure;Samples;Min_cycle;Max_cycle;Signal;HPM_P1;HPM_P2
2021/10/19 00:00:32;;;;;;;1.53;1.10;;;12.20;98.20;;;;;;5014831;28;20486;-77
2021/10/19 00:03:23;;;;;;;1.53;1.10;;;12.20;98.20;;;;;;4986964;28;20989;-77
2021/10/19 00:05:50;;;;;;;1.70;1.50;;;12.20;98.20;;;;;;5008368;28;20486;-76
2021/10/19 00:08:30;;;;;;;1.50;1.10;;;12.20;98.20;;;;;;5012773;28;20479;-77
2021/10/19 00:13:42;;;;;;;1.93;1.30;;;12.20;98.20;;;;;;5027404;28;20816;-77
2021/10/19 00:16:22;;;;;;;1.60;1.20;;;12.30;98.20;;;;;;5012342;28;20541;-77
2021/10/19 00:18:55;;;;;;;1.60;1.20;;;12.30;98.20;;;;;;5027920;28;20498;-77
2021/10/19 00:21:39;;;;;;;1.60;1.10;;;12.30;98.20;;;;;;5006031;28;21013;-77
2021/10/19 00:24:11;;;;;;;1.50;1.07;;;12.30;98.20;;;;;;5025717;28;20491;-79
2021/10/19 00:27:04;;;;;;;2.00;1.77;;;12.30;98.20;;;;;;5012170;28;20558;-78
2021/10/19 00:29:36;;;;;;;1.50;1.03;;;12.30;98.20;;;;;;5022499;28;20464;-78
2021/10/19 00:32:08;;;;;;;1.60;1.20;;;12.30;98.20;;;;;;5017140;28;20514;-78
2021/10/19 00:34:40;;;;;;;1.57;1.10;;;12.30;98.20;;;;;;5027427;28;20456;-78
2021/10/19 00:37:09;;;;;;;1.57;1.00;;;12.40;98.20;;;;;;5004347;28;21112;-78
2021/10/19 00:39:47;;;;;;;1.50;1.00;;;12.30;98.20;;;;;;5017511;28;20471;-78
2021/10/19 00:42:19;;;;;;;1.57;1.10;;;12.40;98.20;;;;;;5018271;28;21059;-79
2021/10/19 00:45:15;;;;;;;2.03;1.77;;;12.40;98.20;;;;;;5015105;28;20500;-80
2021/10/19 00:47:54;;;;;;;1.57;1.20;;;12.30;98.20;;;;;;5017139;28;20762;-78
2021/10/19 00:50:51;;;;;;;1.50;1.10;;;12.30;98.20;;;;;;5015353;28;20463;-78
2021/10/19 00:56:48;;;;;;;1.57;1.20;;;12.30;98.20;;;;;;5004753;28;20479;-79
2021/10/19 00:59:16;;;;;;;1.57;1.03;;;12.30;98.20;;;;;;5102111;23;20493;-77
2021/10/19 01:01:43;;;;;;;2.37;2.17;;;12.30;98.20;;;;;;5000038;28;20464;-77
2021/10/19 01:06:57;;;;;;;1.50;1.03;;;12.30;98.20;;;;;;4993491;28;20480;-76
2021/10/19 01:10:12;;;;;;;1.50;1.00;;;12.30;98.20;;;;;;4983990;28;20991;-77
2021/10/19 01:12:48;;;;;;;1.53;1.03;;;12.30;98.20;;;;;;4982612;28;20465;-77
2021/10/19 01:15:23;;;;;;;2.20;1.43;;;12.30;98.20;;;;;;4991475;28;20532;-76
2021/10/19 01:18:00;;;;;;;1.60;1.10;;;12.30;98.20;;;;;;5007267;28;20541;-75
2021/10/19 01:20:42;;;;;;;1.50;1.10;;;12.30;98.20;;;;;;4974516;28;20466;-78
2021/10/19 01:23:10;;;;;;;1.60;1.10;;;12.40;98.20;;;;;;5006308;28;20493;-76
2021/10/19 01:26:20;;;;;;;1.60;1.40;;;12.40;98.20;;;;;;4982998;28;20930;-76
2021/10/19 01:28:56;;;;;;;1.53;1.10;;;12.40;98.20;;;;;;4905856;28;20485;-77
2021/10/19 01:32:13;;;;;;;1.50;1.00;;;12.40;98.20;;;;;;4979782;28;21026;-77
2021/10/19 01:37:39;;;;;;;1.57;1.03;;;12.40;98.20;;;;;;4982819;28;20484;-77
2021/10/19 01:40:31;;;;;;;1.50;1.00;;;12.40;98.20;;;;;;4982468;28;20465;-79
2021/10/19 01:42:59;;;;;;;1.57;1.10;;;12.40;98.20;;;;;;4983114;28;20471;-79
2021/10/19 01:45:26;;;;;;;2.27;1.97;;;12.40;98.20;;;;;;4979556;28;20494;-77
2021/10/19 01:47:53;;;;;;;1.53;1.10;;;12.40;98.20;;;;;;5000308;28;20497;-77
2021/10/19 01:50:20;;;;;;;1.50;1.10;;;12.30;98.20;;;;;;4976693;28;20477;-78
2021/10/19 01:52:49;;;;;;;1.60;1.20;;;12.30;98.20;;;;;;4997693;28;20879;-79
2021/10/19 01:55:16;;;;;;;1.50;1.10;;;12.30;98.20;;;;;;4986316;28;20461;-79
2021/10/19 01:57:45;;;;;;;1.57;1.10;;;12.30;98.20;;;;;;4995558;28;20484;-78
2021/10/19 02:00:12;;;;;;;1.50;1.00;;;12.20;98.20;;;;;;4976878;28;20473;-79
2021/10/19 02:02:40;;;;;;;1.50;1.10;;;12.20;98.20;;;;;;4995708;28;20529;-78
2021/10/19 02:05:08;;;;;;;1.60;1.30;;;12.20;98.20;;;;;;4982917;28;20967;-79
2021/10/19 02:07:36;;;;;;;3.50;3.20;;;12.10;98.20;;;;;;4996573;28;20499;-78
2021/10/19 02:10:09;;;;;;;1.50;1.10;;;12.10;98.20;;;;;;4982924;28;20474;-78
2021/10/19 02:12:36;;;;;;;1.53;1.10;;;12.10;98.20;;;;;;4992711;28;20476;-78
2021/10/19 02:15:04;;;;;;;1.57;1.10;;;12.10;98.20;;;;;;4983288;28;20466;-79
2021/10/19 02:17:31;;;;;;;1.60;1.20;;;12.00;98.20;;;;;;4990961;28;20475;-79
2021/10/19 02:20:06;;;;;;;1.53;1.10;;;12.00;98.20;;;;;;4978988;28;20469;-78
2021/10/19 02:22:33;;;;;;;1.50;1.07;;;12.00;98.20;;;;;;4988116;28;20488;-78
2021/10/19 02:25:22;;;;;;;1.60;1.17;;;12.00;98.20;;;;;;4986787;28;20486;-81
2021/10/19 02:27:49;;;;;;;1.57;1.10;;;12.00;98.20;;;;;;4995717;28;20479;-79
2021/10/19 02:30:31;;;;;;;1.57;1.10;;;11.90;98.20;;;;;;4978313;28;20477;-79
2021/10/19 02:32:59;;;;;;;1.53;1.10;;;11.90;98.20;;;;;;4999255;28;20488;-79
2021/10/19 02:35:25;;;;;;;1.50;1.00;;;11.90;98.20;;;;;;4974239;28;20462;-78
2021/10/19 02:37:54;;;;;;;1.60;1.10;;;11.90;98.20;;;;;;4979063;28;20484;-78
2021/10/19 02:40:23;;;;;;;1.53;1.10;;;11.90;98.20;;;;;;4975585;28;20474;-78
2021/10/19 02:42:55;;;;;;;1.50;1.10;;;12.00;98.20;;;;;;4998471;28;20531;-78
2021/10/19 02:45:28;;;;;;;1.90;1.37;;;12.00;98.20;;;;;;5042114;22;20506;-79
2021/10/19 02:47:57;;;;;;;1.53;1.10;;;12.00;98.20;;;;;;5011466;28;20474;-80
2021/10/19 02:50:28;;;;;;;1.57;1.13;;;12.00;98.20;;;;;;5015747;28;20483;-79
2021/10/19 02:52:57;;;;;;;1.50;1.00;;;12.00;98.20;;;;;;5015609;28;20570;-80
2021/10/19 02:55:37;;;;;;;1.70;1.50;;;12.00;98.20;;;;;;5013730;28;20464;-76
2021/10/19 02:58:08;;;;;;;1.70;1.53;;;12.00;98.20;;;;;;5022662;28;20487;-78
2021/10/19 03:00:52;;;;;;;1.57;1.10;;;12.00;98.20;;;;;;5016477;28;20487;-77
2021/10/19 03:03:36;;;;;;;1.50;1.00;;;12.00;98.20;;;;;;4984281;28;20499;-78
2021/10/19 03:06:16;;;;;;;1.60;1.10;;;12.00;98.20;;;;;;4975760;28;20680;-77
2021/10/19 03:08:48;;;;;;;1.60;1.00;;;12.00;98.20;;;;;;5012657;28;20497;-76
2021/10/19 03:11:27;;;;;;;1.60;1.00;;;12.00;98.20;;;;;;5011844;28;20546;-78
2021/10/19 03:14:01;;;;;;;1.53;1.00;;;12.00;98.20;;;;;;5015769;28;20470;-77
2021/10/19 03:16:36;;;;;;;1.50;1.00;;;12.10;98.20;;;;;;5004880;28;20488;-78
2021/10/19 03:19:22;;;;;;;1.53;1.00;;;12.10;98.20;;;;;;5021766;28;20479;-78
2021/10/19 03:21:49;;;;;;;1.57;1.10;;;12.00;98.20;;;;;;5009576;28;20566;-77
2021/10/19 03:24:30;;;;;;;1.60;1.10;;;12.00;98.20;;;;;;5019492;28;20967;-78
2021/10/19 03:27:01;;;;;;;1.53;1.10;;;11.90;98.20;;;;;;5016241;28;20467;-78
2021/10/19 03:29:34;;;;;;;1.60;1.20;;;12.00;98.20;;;;;;5020804;28;20470;-77
2021/10/19 03:32:16;;;;;;;3.10;2.60;;;11.90;98.20;;;;;;5014048;28;20487;-78
2021/10/19 03:34:44;;;;;;;1.50;1.00;;;11.90;98.20;;;;;;5018165;28;20491;-78
2021/10/19 03:37:13;;;;;;;1.53;1.10;;;11.90;98.20;;;;;;5041245;22;21070;-77
2021/10/19 03:39:58;;;;;;;1.57;1.00;;;11.90;98.20;;;;;;5019136;28;20463;-77
2021/10/19 03:42:29;;;;;;;2.60;2.40;;;11.90;98.20;;;;;;5005634;28;20565;-78
2021/10/19 03:45:05;;;;;;;1.80;1.20;;;11.90;98.20;;;;;;5017665;28;20488;-77
2021/10/19 03:47:32;;;;;;;1.50;1.00;;;11.90;98.20;;;;;;5004280;28;20503;-77
2021/10/19 03:50:08;;;;;;;1.60;1.10;;;11.90;98.20;;;;;;5017061;28;20527;-77
2021/10/19 03:52:37;;;;;;;1.53;1.00;;;11.90;98.20;;;;;;5006253;28;20484;-77
2021/10/19 03:55:11;;;;;;;1.53;1.00;;;12.00;98.20;;;;;;5008422;28;20464;-77
2021/10/19 03:57:40;;;;;;;3.30;1.70;;;12.00;98.20;;;;;;5001642;28;20495;-77
2021/10/19 04:00:18;;;;;;;1.50;1.00;;;12.00;98.20;;;;;;5013903;28;20963;-77
2021/10/19 04:02:46;;;;;;;1.73;1.40;;;12.00;98.20;;;;;;4999925;28;20476;-78
2021/10/19 04:05:13;;;;;;;1.50;1.00;;;12.00;98.20;;;;;;5015108;28;20501;-78
2021/10/19 04:07:42;;;;;;;1.53;1.10;;;12.00;98.20;;;;;;5009773;28;20480;-76
2021/10/19 04:10:10;;;;;;;1.70;1.40;;;12.00;98.20;;;;;;5013898;28;20879;-77
2021/10/19 04:12:49;;;;;;;1.50;1.00;;;12.00;98.20;;;;;;5004795;28;20859;-78
2021/10/19 04:15:37;;;;;;;1.57;1.00;;;12.00;98.20;;;;;;5009811;28;20507;-76
2021/10/19 04:18:04;;;;;;;1.60;1.10;;;12.00;98.20;;;;;;5005288;28;20495;-78
2021/10/19 04:20:31;;;;;;;1.60;1.10;;;12.00;98.20;;;;;;5023795;28;20463;-78
2021/10/19 04:23:01;;;;;;;1.53;1.00;;;12.00;98.20;;;;;;5005365;28;20519;-77
2021/10/19 04:25:36;;;;;;;1.50;1.00;;;12.00;98.20;;;;;;5026920;28;20483;-78
2021/10/19 04:28:05;;;;;;;1.53;1.00;;;12.10;98.20;;;;;;4987313;28;20497;-77
2021/10/19 04:30:58;;;;;;;1.53;1.00;;;12.10;98.20;;;;;;5018802;28;20468;-79
2021/10/19 04:33:32;;;;;;;1.50;1.00;;;12.10;98.20;;;;;;4982773;28;20507;-79
2021/10/19 04:36:04;;;;;;;1.57;1.10;;;12.10;98.20;;;;;;5005408;28;20686;-81
2021/10/19 04:38:32;;;;;;;1.60;1.10;;;12.10;98.20;;;;;;5004656;28;20488;-78
2021/10/19 04:41:05;;;;;;;1.80;1.60;;;12.10;98.20;;;;;;5001967;28;20536;-79
2021/10/19 04:43:36;;;;;;;1.50;1.00;;;12.10;98.20;;;;;;5009214;28;20468;-77
2021/10/19 04:46:10;;;;;;;1.50;1.00;;;12.20;98.20;;;;;;5001876;28;20484;-77
2021/10/19 04:48:40;;;;;;;1.53;1.00;;;12.20;98.20;;;;;;5010392;28;20860;-78
2021/10/19 04:51:10;;;;;;;1.60;1.00;;;12.20;98.20;;;;;;5007360;28;20468;-77
2021/10/19 04:53:51;;;;;;;1.60;1.20;;;12.20;98.20;;;;;;5004817;28;20732;-78
2021/10/19 04:56:29;;;;;;;1.53;1.00;;;12.20;98.20;;;;;;5003510;28;20494;-76
2021/10/19 04:59:05;;;;;;;1.60;1.10;;;12.20;98.20;;;;;;5068879;22;20528;-80
2021/10/19 05:01:32;;;;;;;1.57;1.10;;;12.20;98.20;;;;;;5052602;28;20554;-77
2021/10/19 05:04:01;;;;;;;1.60;1.10;;;12.20;98.20;;;;;;5068119;28;20464;-77
2021/10/19 05:06:28;;;;;;;1.53;1.00;;;12.20;98.20;;;;;;5050371;28;20485;-79
2021/10/19 05:09:12;;;;;;;1.60;1.20;;;12.20;98.20;;;;;;5065049;28;20489;-76
2021/10/19 05:11:39;;;;;;;1.53;1.00;;;12.30;98.20;;;;;;5055501;28;20898;-77
2021/10/19 05:14:07;;;;;;;3.40;3.20;;;12.30;98.20;;;;;;5064840;28;20529;-77
2021/10/19 05:16:34;;;;;;;1.53;1.00;;;12.30;98.20;;;;;;5053549;28;20473;-77
2021/10/19 05:19:00;;;;;;;1.77;1.47;;;12.30;98.20;;;;;;5067270;28;20854;-77
2021/10/19 05:21:27;;;;;;;1.60;1.10;;;12.30;98.20;;;;;;5052432;28;20472;-75
2021/10/19 05:23:56;;;;;;;1.53;1.07;;;12.30;98.20;;;;;;5068747;28;20525;-79
2021/10/19 05:26:25;;;;;;;3.00;1.93;;;12.30;98.20;;;;;;5052603;28;20515;-77
2021/10/19 05:29:22;;;;;;;1.50;1.00;;;12.30;98.20;;;;;;5068302;28;20485;-77
2021/10/19 05:31:50;;;;;;;1.57;1.00;;;12.30;98.20;;;;;;5113777;22;20574;-77
2021/10/19 05:34:17;;;;;;;1.53;1.00;;;12.30;98.20;;;;;;5039048;28;20466;-77
2021/10/19 05:36:45;;;;;;;1.57;1.00;;;12.30;98.20;;;;;;5049637;22;20502;-77
2021/10/19 05:39:15;;;;;;;1.57;1.10;;;12.30;98.20;;;;;;5059788;28;20493;-77
2021/10/19 05:41:42;;;;;;;1.57;1.10;;;12.40;98.20;;;;;;5054965;28;20480;-78
2021/10/19 05:44:08;;;;;;;1.53;1.00;;;12.40;98.20;;;;;;5060738;28;20462;-77
2021/10/19 05:46:35;;;;;;;1.50;1.00;;;12.40;98.20;;;;;;5048096;28;20558;-76
2021/10/19 05:49:04;;;;;;;1.57;1.10;;;12.40;98.20;;;;;;5060024;28;20482;-77
2021/10/19 05:51:51;;;;;;;1.70;1.50;;;12.40;98.20;;;;;;5044567;28;20489;-77
2021/10/19 05:54:18;;;;;;;1.60;1.10;;;12.40;98.20;;;;;;5056209;28;20545;-78
2021/10/19 05:56:48;;;;;;;1.97;1.77;;;12.50;98.20;;;;;;5051739;28;20632;-77
2021/10/19 06:02:55;;;;;;;1.50;1.00;;;12.50;98.20;;;;;;5033565;28;20504;-77
2021/10/19 06:05:29;;;;;;;1.50;1.03;;;12.50;98.20;;;;;;5044900;28;20963;-78
2021/10/19 06:07:56;;;;;;;1.53;1.10;;;12.50;98.20;;;;;;5058380;28;20487;-78
2021/10/19 06:10:29;;;;;;;1.50;1.00;;;12.50;98.20;;;;;;5048013;28;20458;-77
2021/10/19 06:12:56;;;;;;;1.53;1.00;;;12.50;98.20;;;;;;5054433;28;20493;-78
2021/10/19 06:15:25;;;;;;;1.57;1.10;;;12.50;98.20;;;;;;5050060;28;20470;-77
2021/10/19 06:18:04;;;;;;;1.90;1.37;;;12.60;98.20;;;;;;5058690;28;20481;-77
2021/10/19 06:20:34;;;;;;;1.53;1.00;;;12.60;98.20;;;;;;5048423;28;20459;-77
2021/10/19 06:23:01;;;;;;;1.50;1.00;;;12.60;98.20;;;;;;5048444;28;20493;-78
2021/10/19 06:25:27;;;;;;;1.50;1.00;;;12.60;98.20;;;;;;5045724;28;20466;-77
2021/10/19 06:27:57;;;;;;;1.57;1.00;;;12.60;98.20;;;;;;5048612;28;20875;-77
2021/10/19 06:30:27;;;;;;;1.60;1.10;;;12.60;98.20;;;;;;5044358;28;20478;-77
2021/10/19 06:32:54;;;;;;;1.57;1.00;;;12.60;98.20;;;;;;5051468;28;20477;-78
2021/10/19 06:35:23;;;;;;;1.57;1.07;;;12.70;98.20;;;;;;5043101;28;20478;-77
2021/10/19 06:37:51;;;;;;;1.53;1.00;;;12.70;98.20;;;;;;5042865;28;21016;-78
2021/10/19 06:40:20;;;;;;;2.03;1.83;;;12.70;98.20;;;;;;5045728;28;20454;-77
2021/10/19 06:42:47;;;;;;;1.60;1.00;;;12.70;98.20;;;;;;5042422;28;20480;-77
2021/10/19 06:45:14;;;;;;;4.43;2.80;;;12.70;98.20;;;;;;5041045;28;20654;-78
2021/10/19 06:47:41;;;;;;;1.50;1.00;;;12.80;98.20;;;;;;5042490;28;20623;-78
2021/10/19 06:50:11;;;;;;;1.53;1.00;;;12.80;98.20;;;;;;5042966;28;20951;-77
2021/10/19 06:52:38;;;;;;;1.60;1.17;;;12.80;98.20;;;;;;5055311;28;20476;-77
2021/10/19 06:55:09;;;;;;;1.60;1.10;;;12.80;98.20;;;;;;5041635;28;20463;-77
2021/10/19 06:57:41;;;;;;;1.57;1.00;;;12.90;98.20;;;;;;5041577;28;20494;-78
2021/10/19 07:00:11;;;;;;;1.53;1.00;;;12.90;98.20;;;;;;5042505;28;20470;-76
2021/10/19 07:02:39;;;;;;;1.53;1.00;;;12.90;98.20;;;;;;5042927;28;20485;-75
2021/10/19 07:05:10;;;;;;;1.50;1.00;;;12.90;98.20;;;;;;5043018;28;20887;-76
2021/10/19 07:07:40;;;;;;;1.50;0.93;;;13.00;98.20;;;;;;5044584;28;20486;-76
2021/10/19 07:10:09;;;;;;;1.50;1.03;;;13.00;98.20;;;;;;5042540;28;20474;-76
2021/10/19 07:12:43;;;;;;;1.57;1.00;;;13.00;98.20;;;;;;5046364;28;20485;-76
2021/10/19 07:15:11;;;;;;;1.57;1.00;;;13.00;98.20;;;;;;5039053;28;20470;-76
2021/10/19 07:17:38;;;;;;;1.60;1.10;;;13.00;98.20;;;;;;5047578;28;20489;-77
2021/10/19 07:20:18;;;;;;;1.57;1.00;;;13.00;98.20;;;;;;5041073;28;20469;-76
2021/10/19 07:22:48;;;;;;;1.53;1.07;;;13.10;98.20;;;;;;5041188;28;20901;-76
2021/10/19 07:25:17;;;;;;;1.53;1.00;;;13.10;98.20;;;;;;5042732;28;20524;-77
2021/10/19 07:27:44;;;;;;;1.60;1.10;;;13.10;98.20;;;;;;5043947;28;20962;-77
2021/10/19 07:30:13;;;;;;;1.60;1.10;;;13.10;98.20;;;;;;5036458;28;20466;-77
2021/10/19 07:32:40;;;;;;;1.50;1.00;;;13.20;98.20;;;;;;5047053;28;20481;-76
2021/10/19 07:35:07;;;;;;;1.70;1.40;;;13.20;98.20;;;;;;5040612;28;20959;-77
2021/10/19 07:37:36;;;;;;;1.57;1.07;;;13.20;98.20;;;;;;5042467;28;20485;-77
2021/10/19 07:40:04;;;;;;;1.53;1.00;;;13.20;98.20;;;;;;5050527;28;20458;-76
2021/10/19 07:42:33;;;;;;;1.60;1.10;;;13.20;98.20;;;;;;5043903;28;20553;-77
2021/10/19 07:45:00;;;;;;;1.57;1.00;;;13.30;98.20;;;;;;5040432;28;20495;-76
2021/10/19 07:47:27;;;;;;;1.60;1.10;;;13.30;98.20;;;;;;5041214;28;20492;-77
2021/10/19 07:49:54;;;;;;;1.57;1.07;;;13.30;98.20;;;;;;5044228;28;20473;-77
2021/10/19 07:52:36;;;;;;;1.53;1.00;;;13.30;98.20;;;;;;5055480;28;20535;-76
2021/10/19 07:55:07;;;;;;;1.57;1.00;;;13.30;98.20;;;;;;5048494;28;20492;-76
2021/10/19 07:57:44;;;;;;;1.60;1.10;;;13.30;98.20;;;;;;5023668;22;20472;-74
2021/10/19 08:00:15;;;;;;;1.60;1.10;;;13.30;98.20;;;;;;5000776;28;20495;-74
2021/10/19 08:02:43;;;;;;;1.53;1.00;;;13.40;98.20;;;;;;5000685;28;20542;-74
2021/10/19 08:05:13;;;;;;;1.60;1.00;;;13.40;98.20;;;;;;5007056;28;20464;-74
2021/10/19 08:07:41;;;;;;;1.53;1.00;;;13.50;98.20;;;;;;4971020;28;20493;-74
2021/10/19 08:10:12;;;;;;;1.60;1.10;;;13.50;98.20;;;;;;4967634;28;20501;-75
2021/10/19 08:12:39;;;;;;;1.53;1.00;;;13.50;98.20;;;;;;4971542;28;20485;-74
2021/10/19 08:15:08;;;;;;;1.57;1.00;;;13.50;98.20;;;;;;4969137;28;20489;-74
2021/10/19 08:17:35;;;;;;;1.50;1.00;;;13.50;98.20;;;;;;4966060;28;20489;-74
2021/10/19 08:20:05;;;;;;;1.60;1.00;;;13.50;98.20;;;;;;4968548;28;20939;-74
2021/10/19 08:22:34;;;;;;;1.53;1.00;;;13.60;98.20;;;;;;4966260;28;20922;-74
2021/10/19 08:25:03;;;;;;;1.57;1.10;;;13.60;98.20;;;;;;4972434;28;20488;-74
2021/10/19 08:27:30;;;;;;;1.53;1.00;;;13.60;98.20;;;;;;4970560;28;21234;-74
2021/10/19 08:29:57;;;;;;;1.50;1.00;;;13.60;98.20;;;;;;4975382;28;20477;-74
2021/10/19 08:32:25;;;;;;;3.00;1.10;;;13.60;98.20;;;;;;4988855;28;20491;-75
2021/10/19 08:34:53;;;;;;;3.40;3.20;;;13.60;98.20;;;;;;4985859;28;20897;-74
2021/10/19 08:37:20;;;;;;;1.57;1.00;;;13.70;98.20;;;;;;4971210;28;20489;-74
2021/10/19 08:39:47;;;;;;;1.60;1.00;;;13.70;98.20;;;;;;4965728;28;20473;-74
2021/10/19 08:42:15;;;;;;;1.50;1.00;;;13.70;98.20;;;;;;4967350;28;20486;-74
2021/10/19 08:44:44;;;;;;;1.60;1.00;;;13.70;98.20;;;;;;4965906;28;20470;-74
2021/10/19 08:47:11;;;;;;;1.50;1.00;;;13.80;98.20;;;;;;4973151;28;20990;-75
2021/10/19 08:49:39;;;;;;;1.53;1.00;;;13.80;98.20;;;;;;4972131;28;20476;-74
2021/10/19 08:52:06;;;;;;;1.53;1.00;;;13.80;98.20;;;;;;4969723;28;20488;-75
2021/10/19 08:54:33;;;;;;;1.53;1.00;;;13.90;98.20;;;;;;4969783;28;20469;-75
2021/10/19 08:57:00;;;;;;;1.60;1.00;;;13.90;98.20;;;;;;4964112;28;20485;-74
2021/10/19 08:59:27;;;;;;;1.97;1.77;;;13.90;98.20;;;;;;4969693;28;20998;-74
2021/10/19 09:01:56;;;;;;;1.50;1.00;;;14.00;98.20;;;;;;4960844;28;20492;-75
2021/10/19 09:04:30;;;;;;;1.60;1.10;;;14.00;98.20;;;;;;4963781;28;20563;-75
2021/10/19 09:06:58;;;;;;;1.57;1.00;;;14.00;98.20;;;;;;4960870;28;20784;-74
2021/10/19 09:09:27;;;;;;;1.57;1.07;;;14.00;98.20;;;;;;4971046;28;20465;-74
2021/10/19 09:11:56;;;;;;;1.57;1.00;;;14.00;98.20;;;;;;4967621;28;20495;-75
2021/10/19 09:14:30;;;;;;;1.57;1.10;;;14.00;98.20;;;;;;4970180;28;20893;-75
2021/10/19 09:17:00;;;;;;;1.57;1.00;;;14.10;98.20;;;;;;4960528;28;21120;-78
2021/10/19 09:19:27;;;;;;;1.57;1.00;;;14.10;98.20;;;;;;4973253;28;20477;-77
2021/10/19 09:21:55;;;;;;;1.60;1.00;;;14.10;98.20;;;;;;4966660;28;20481;-78
2021/10/19 09:24:27;;;;;;;1.53;1.07;;;14.10;98.20;;;;;;4992816;28;20476;-78
2021/10/19 09:27:01;;;;;;;1.57;1.00;;;14.10;98.20;;;;;;4975620;28;20492;-78
2021/10/19 09:29:39;;;;;;;1.53;1.10;;;14.10;98.20;;;;;;4982838;28;20516;-78
2021/10/19 09:32:07;;;;;;;1.60;1.00;;;14.20;98.20;;;;;;4977893;28;21411;-78
2021/10/19 09:34:36;;;;;;;1.50;1.00;;;14.20;98.20;;;;;;4977716;28;20582;-76
2021/10/19 09:37:05;;;;;;;1.50;1.03;;;14.30;98.20;;;;;;4960442;28;20581;-77
2021/10/19 09:39:36;;;;;;;1.57;1.03;;;14.30;98.20;;;;;;4968039;28;20829;-78
2021/10/19 09:42:06;;;;;;;1.60;1.20;;;14.30;98.20;;;;;;4972071;28;20496;-79
2021/10/19 09:44:33;;;;;;;1.57;1.00;;;14.40;98.20;;;;;;4980505;28;20473;-77
2021/10/19 09:47:00;;;;;;;1.60;1.00;;;14.40;98.20;;;;;;4974064;28;20766;-78
2021/10/19 09:49:31;;;;;;;1.50;1.00;;;14.50;98.20;;;;;;4988261;28;20466;-77
2021/10/19 09:52:00;;;;;;;1.60;1.00;;;14.50;98.20;;;;;;4973351;28;20485;-78
2021/10/19 09:54:38;;;;;;;1.50;0.93;;;14.50;98.20;;;;;;4970721;28;20470;-77
2021/10/19 09:57:07;;;;;;;1.57;1.00;;;14.50;98.20;;;;;;4986263;28;20510;-79
2021/10/19 09:59:44;;;;;;;1.57;1.00;;;14.50;98.20;;;;;;4980449;28;20483;-77
2021/10/19 10:02:14;;;;;;;1.57;1.00;;;14.60;98.20;;;;;;4985082;28;20726;-77
2021/10/19 10:04:43;;;;;;;1.53;1.00;;;14.60;98.20;;;;;;4977740;28;20464;-77
2021/10/19 10:07:14;;;;;;;1.50;1.00;;;14.60;98.20;;;;;;4972222;28;20923;-78
2021/10/19 10:09:45;;;;;;;1.60;1.00;;;14.70;98.20;;;;;;4980844;28;20466;-77
2021/10/19 10:12:29;;;;;;;1.53;1.00;;;14.70;98.20;;;;;;4980682;28;20503;-78
2021/10/19 10:14:56;;;;;;;1.53;1.00;;;14.70;98.20;;;;;;4979321;28;20466;-77
2021/10/19 10:17:23;;;;;;;1.50;1.00;;;14.70;98.20;;;;;;4977322;28;20571;-78
2021/10/19 10:19:52;;;;;;;1.53;1.00;;;14.70;98.20;;;;;;4981528;28;20635;-77
2021/10/19 10:22:22;;;;;;;1.57;0.90;;;14.80;98.20;;;;;;4971779;28;20527;-78
2021/10/19 10:24:49;;;;;;;1.60;1.00;;;14.80;98.20;;;;;;4962639;28;20461;-78
2021/10/19 10:27:26;;;;;;;1.60;1.10;;;14.80;98.20;;;;;;4965766;28;20994;-77
2021/10/19 10:29:53;;;;;;;1.57;0.90;;;14.90;98.20;;;;;;4968482;28;20456;-79
2021/10/19 10:32:23;;;;;;;1.53;1.00;;;14.90;98.20;;;;;;4968541;28;20477;-78
2021/10/19 10:35:00;;;;;;;1.60;1.00;;;14.90;98.20;;;;;;4973179;28;20462;-78
2021/10/19 10:37:39;;;;;;;1.57;1.00;;;15.00;98.20;;;;;;4968019;28;20829;-79
2021/10/19 10:40:08;;;;;;;1.50;0.93;;;15.00;98.20;;;;;;4971465;28;20462;-77
2021/10/19 10:42:37;;;;;;;1.60;1.10;;;15.00;98.20;;;;;;4969941;28;20890;-77
2021/10/19 10:45:20;;;;;;;1.50;1.00;;;15.00;98.20;;;;;;4970242;28;20462;-80
2021/10/19 10:47:48;;;;;;;1.57;1.00;;;15.00;98.20;;;;;;4968713;28;20485;-80
2021/10/19 10:50:19;;;;;;;1.57;1.00;;;15.00;98.20;;;;;;4978304;28;20469;-79
2021/10/19 10:53:01;;;;;;;1.53;1.00;;;15.00;98.20;;;;;;4974830;28;20495;-79
2021/10/19 10:55:29;;;;;;;1.53;1.00;;;15.00;98.20;;;;;;4972809;28;20469;-78
2021/10/19 10:57:57;;;;;;;1.60;1.07;;;15.00;98.20;;;;;;4965563;28;20492;-79
2021/10/19 11:00:30;;;;;;;1.50;0.90;;;15.00;98.20;;;;;;4967026;28;20513;-78
2021/10/19 11:03:14;;;;;;;1.50;1.00;;;15.10;98.20;;;;;;4966765;28;20488;-79
2021/10/19 11:05:52;;;;;;;1.53;1.00;;;15.10;98.20;;;;;;4967614;28;20589;-77
2021/10/19 11:08:24;;;;;;;1.57;1.07;;;15.10;98.20;;;;;;4957166;28;20504;-77
2021/10/19 11:13:51;;;;;;;1.60;1.00;;;15.20;98.20;;;;;;4975880;28;20458;-78
2021/10/19 11:16:19;;;;;;;1.53;1.00;;;15.20;98.20;;;;;;4956107;28;20503;-77
2021/10/19 11:18:51;;;;;;;1.60;1.00;;;15.30;98.20;;;;;;4982749;28;20457;-80
2021/10/19 11:21:17;;;;;;;1.60;1.00;;;15.30;98.20;;;;;;4962113;28;20894;-77
2021/10/19 11:23:44;;;;;;;1.53;0.90;;;15.40;98.20;;;;;;4973942;28;20478;-78
2021/10/19 11:26:12;;;;;;;1.60;1.00;;;15.40;98.20;;;;;;4961274;28;20504;-77
2021/10/19 11:28:41;;;;;;;1.53;1.00;;;15.50;98.20;;;;;;4981574;28;20489;-77
2021/10/19 11:31:10;;;;;;;2.80;1.40;;;15.50;98.20;;;;;;4957709;28;21504;-77
2021/10/19 11:33:46;;;;;;;1.60;1.00;;;15.60;98.20;;;;;;4976069;28;20873;-78
2021/10/19 11:36:14;;;;;;;1.57;0.90;;;15.60;98.20;;;;;;4956655;28;20933;-75
2021/10/19 11:38:43;;;;;;;1.70;1.40;;;15.60;98.20;;;;;;4977976;28;20500;-76
2021/10/19 11:41:13;;;;;;;1.60;1.00;;;15.70;98.20;;;;;;4961955;28;20496;-78
2021/10/19 11:43:41;;;;;;;1.60;1.17;;;15.70;98.20;;;;;;4977220;28;20467;-77
2021/10/19 11:46:12;;;;;;;1.60;1.00;;;15.80;98.20;;;;;;4962477;28;20515;-77
2021/10/19 11:48:39;;;;;;;1.60;0.97;;;15.90;98.20;;;;;;4979614;28;20493;-78
2021/10/19 11:51:11;;;;;;;1.60;1.00;;;15.90;98.20;;;;;;4961779;28;20482;-77
2021/10/19 11:53:39;;;;;;;1.60;1.10;;;16.00;98.20;;;;;;4977235;28;20473;-75
2021/10/19 11:56:06;;;;;;;1.60;1.00;;;16.00;98.20;;;;;;4958551;28;20488;-75
2021/10/19 11:58:33;;;;;;;1.57;1.00;;;16.10;98.20;;;;;;4976051;28;20465;-75
2021/10/19 12:01:01;;;;;;;1.60;0.90;;;16.10;98.20;;;;;;4962629;28;20690;-75
2021/10/19 12:03:33;;;;;;;1.53;1.00;;;16.10;98.20;;;;;;4978328;28;20466;-75
2021/10/19 12:06:00;;;;;;;1.53;0.97;;;16.20;98.20;;;;;;4954999;28;20500;-75
2021/10/19 12:08:33;;;;;;;1.53;1.00;;;16.20;98.20;;;;;;4976340;28;20500;-74
2021/10/19 12:11:11;;;;;;;1.50;0.90;;;16.30;98.20;;;;;;4961219;28;20474;-75
2021/10/19 12:13:38;;;;;;;1.60;1.00;;;16.30;98.20;;;;;;4978657;28;20968;-77
2021/10/19 12:16:06;;;;;;;1.60;1.00;;;16.40;98.20;;;;;;4967335;28;20488;-77
2021/10/19 12:18:43;;;;;;;1.60;1.00;;;16.50;98.20;;;;;;4977446;28;20844;-77
2021/10/19 12:21:10;;;;;;;1.60;1.00;;;16.50;98.20;;;;;;4961562;28;20511;-77
2021/10/19 12:23:38;;;;;;;1.60;1.00;;;16.60;98.20;;;;;;4976402;28;20552;-79
2021/10/19 12:26:10;;;;;;;1.57;1.00;;;16.60;98.20;;;;;;4961085;28;20486;-79
2021/10/19 12:28:37;;;;;;;1.60;1.00;;;16.70;98.20;;;;;;4980998;28;20489;-76
2021/10/19 12:31:04;;;;;;;1.60;1.00;;;16.70;98.20;;;;;;4959065;28;20470;-76
2021/10/19 12:33:32;;;;;;;1.60;1.00;;;16.70;98.20;;;;;;4973968;28;20474;-79
2021/10/19 12:36:03;;;;;;;1.60;1.00;;;16.70;98.20;;;;;;4953117;28;20989;-78
2021/10/19 12:38:32;;;;;;;1.60;1.00;;;16.70;98.20;;;;;;4977897;28;20465;-76
2021/10/19 12:41:11;;;;;;;1.60;1.00;;;16.80;98.20;;;;;;4964030;28;20466;-79
2021/10/19 12:43:39;;;;;;;1.60;1.10;;;16.80;98.20;;;;;;4968992;28;20462;-79
2021/10/19 12:46:10;;;;;;;1.57;0.90;;;16.80;98.20;;;;;;4958870;28;20485;-79
2021/10/19 12:48:39;;;;;;;1.57;1.00;;;16.80;98.20;;;;;;4977466;28;20884;-78
2021/10/19 12:51:10;;;;;;;1.60;1.00;;;16.80;98.20;;;;;;4965764;28;20496;-76
2021/10/19 12:53:38;;;;;;;1.60;1.00;;;16.80;98.20;;;;;;4979620;28;20466;-77
2021/10/19 12:56:07;;;;;;;1.57;1.00;;;16.90;98.20;;;;;;4956683;28;20485;-79
2021/10/19 12:58:34;;;;;;;1.60;0.90;;;16.90;98.20;;;;;;4977768;28;20466;-80
2021/10/19 13:01:10;;;;;;;1.57;1.00;;;16.90;98.20;;;;;;4965324;28;20464;-79
2021/10/19 13:03:37;;;;;;;1.57;1.00;;;16.90;98.20;;;;;;4973395;28;20469;-79
2021/10/19 13:06:07;;;;;;;1.60;1.00;;;16.90;98.20;;;;;;4956996;28;20512;-80
2021/10/19 13:08:37;;;;;;;1.60;1.10;;;17.00;98.20;;;;;;4974784;28;20502;-78
2021/10/19 13:11:12;;;;;;;1.57;0.90;;;17.00;98.20;;;;;;4953512;28;20776;-78
2021/10/19 13:13:38;;;;;;;1.57;1.00;;;17.00;98.20;;;;;;4972611;28;20800;-77
2021/10/19 13:16:06;;;;;;;1.53;1.00;;;17.00;98.20;;;;;;4948026;28;20928;-76
2021/10/19 13:18:34;;;;;;;1.53;0.90;;;17.00;98.20;;;;;;4982846;28;20828;-77
2021/10/19 13:21:02;;;;;;;1.57;1.00;;;17.00;98.20;;;;;;4958765;28;21252;-80
2021/10/19 13:23:29;;;;;;;1.60;1.00;;;17.00;98.20;;;;;;4979449;28;20955;-77
2021/10/19 13:25:58;;;;;;;1.60;1.00;;;17.10;98.20;;;;;;4958985;28;20476;-80
2021/10/19 13:28:25;;;;;;;1.60;1.00;;;17.10;98.20;;;;;;4981455;28;20492;-80